createdAt,value
2022-09-06T00:06:11.141Z,1.2
2022-09-06T00:21:53.179Z,1.2
2022-09-06T00:37:35.852Z,1.3
2022-09-06T00:53:18.130Z,1.1
2022-09-06T01:09:00.199Z,1
2022-09-06T01:24:42.650Z,1.1
2022-09-06T01:40:25.398Z,1
2022-09-06T01:56:08.229Z,1
2022-09-06T02:11:50.669Z,0.9
2022-09-06T02:27:33.371Z,0.8
2022-09-06T02:43:15.725Z,0.9
2022-09-06T02:58:57.711Z,0.7
2022-09-06T03:14:40.298Z,0.6
2022-09-06T03:30:22.582Z,0.6
2022-09-06T03:46:04.682Z,0.7
2022-09-06T04:01:47.045Z,0.6
2022-09-06T04:17:29.007Z,0.6
2022-09-06T04:33:11.634Z,0.6
2022-09-06T04:48:53.711Z,0.6
2022-09-06T05:04:36.158Z,1.3
2022-09-06T05:20:18.983Z,1.1
2022-09-06T05:36:01.462Z,1.6
2022-09-06T05:51:43.710Z,1.1
2022-09-06T05:52:30.969Z,1
2022-09-06T06:08:13.747Z,1
2022-09-06T06:23:56.028Z,1.3
2022-09-06T06:39:38.790Z,1.1
2022-09-06T06:55:21.353Z,0.7
2022-09-06T07:11:03.708Z,0.7
2022-09-06T07:26:46.231Z,0.7
2022-09-06T07:42:28.283Z,0.7
2022-09-06T07:58:10.385Z,0.6
2022-09-06T08:13:52.770Z,0.7
2022-09-06T08:29:35.458Z,0.6
2022-09-06T08:45:17.939Z,0.8
2022-09-06T09:01:00.223Z,0.3
2022-09-06T09:16:43.015Z,0.5
2022-09-06T09:32:24.959Z,0.4
2022-09-06T09:48:07.611Z,0.1
2022-09-06T10:03:49.843Z,0.1
2022-09-06T10:19:32.262Z,0.1
2022-09-06T10:35:14.274Z,0
2022-09-06T10:50:56.466Z,0
2022-09-06T11:06:39.076Z,0
2022-09-06T11:22:21.461Z,0
2022-09-06T11:38:03.784Z,0
2022-09-06T11:53:46.019Z,0
2022-09-06T12:09:28.059Z,0
2022-09-06T12:25:10.239Z,0
2022-09-06T12:40:52.572Z,0
2022-09-06T12:56:35.402Z,0
2022-09-06T13:12:18.279Z,0
2022-09-06T13:28:00.809Z,0
2022-09-06T13:43:43.667Z,0
2022-09-06T13:59:25.715Z,0
2022-09-06T14:15:07.991Z,0
2022-09-06T14:30:50.175Z,0.1
2022-09-06T16:05:05.252Z,0.7
2022-09-06T16:20:47.751Z,0.8
2022-09-06T16:52:13.340Z,0.8
2022-09-06T17:07:56.201Z,0.5
